Navios Pollux — 3FPO2 — position and weather

sailwx.info

Track history (hours):
 
Tides and Currents Weather Stations Pressure Air Temp Water Temp Dewpoint Dewpoint Depression Visibility Wind Speed Wind Dir Waves Ship Positions

Navios Pollux

Last reported at 2017-Aug-23 11:30 UTC. Time now 2017-Aug-23 11:41 UTC.
Position N 36°04' W 005°12'.

Length 292 m; draft 8.8 m.

Type: Cargo ship. MMSI: 370290000.

Date/timePositionNaut miles runAvg speedWind from/ knotsBaromVisibWave heightAir tempDewpointWater temp
2017-Aug-23 11:30N 36°04' W 005°12'610.4
2017-Aug-23 10:56N 36°06' W 005°05'53 8.4
2017-Aug-23 04:33N 36°12' W 003°59'4 9.3
2017-Aug-23 04:09N 36°12' W 003°55'9010.3
2017-Aug-22 19:25N 36°26' W 002°04'4 9.3
2017-Aug-22 19:00N 36°27' W 001°59'6 9.6
2017-Aug-22 18:26N 36°28' W 001°53'6 9.9
2017-Aug-22 17:49N 36°29' W 001°45'3 9.8
2017-Aug-22 17:30N 36°29' W 001°42'3210.5
2017-Aug-22 14:28N 36°34' W 001°03'910.9
2017-Aug-22 13:39N 36°35' W 000°52'210.8
2017-Aug-22 13:27N 36°36' W 000°49'510.8
2017-Aug-22 12:58N 36°37' W 000°42'610.9
2017-Aug-22 12:26N 36°37' W 000°35'811.1
2017-Aug-22 11:44N 36°39' W 000°26'311.3
2017-Aug-22 11:29N 36°39' W 000°22'611.4
2017-Aug-22 10:57N 36°40' W 000°15'1911.3
2017-Aug-22 09:15N 36°43' E 000°09'511.3
2017-Aug-22 08:49N 36°44' E 000°15'411.2
2017-Aug-22 08:30N 36°44' E 000°19'510.9
2017-Aug-22 08:00N 36°45' E 000°26'510.6
2017-Aug-22 07:30N 36°46' E 000°33'510.4
2017-Aug-22 07:00N 36°47' E 000°39'510.3
2017-Aug-22 06:30N 36°48' E 000°45'510.2
2017-Aug-22 06:00N 36°48' E 000°51'510.4
2017-Aug-22 05:29N 36°49' E 000°58'510.2
2017-Aug-22 04:57N 36°50' E 001°05'510.3
2017-Aug-22 04:30N 36°51' E 001°10'510.7
2017-Aug-22 04:00N 36°51' E 001°17'610.9
2017-Aug-22 03:26N 36°52' E 001°25'611.1
2017-Aug-22 02:52N 36°53' E 001°33'1411.4
2017-Aug-22 01:37N 36°55' E 001°50'5410.8
2017-Aug-21 20:38N 37°04' E 002°57'110.6
2017-Aug-21 20:30N 37°04' E 002°59'610.5
2017-Aug-21 19:58N 37°05' E 003°06'1710.5
2017-Aug-21 18:20N 37°08' E 003°27'410.8
2017-Aug-21 18:00N 37°08' E 003°31'21910.1
2017-Aug-20 20:20N 37°18' E 008°07'410.0
2017-Aug-20 19:57N 37°18' E 008°11'910.3
2017-Aug-20 19:02N 37°19' E 008°23'31 9.8
2017-Aug-20 15:50N 37°24' E 009°02'7 9.8
2017-Aug-20 15:08N 37°26' E 009°11'1 9.9
2017-Aug-20 15:00N 37°27' E 009°12'510.1
2017-Aug-20 14:30N 37°28' E 009°18'510.5
2017-Aug-20 14:00N 37°30' E 009°24'1310.1
2017-Aug-20 12:40N 37°34' E 009°41'3 9.8
2017-Aug-20 12:22N 37°34' E 009°44'4 9.9
2017-Aug-20 12:00N 37°35' E 009°49'6 9.9
2017-Aug-20 11:25N 37°37' E 009°56'5 9.7
2017-Aug-20 10:57N 37°38' E 010°01'7 9.8
2017-Aug-20 10:13N 37°38' E 010°10'3 9.7
2017-Aug-20 09:55N 37°38' E 010°14'4 9.3
2017-Aug-20 09:30N 37°37' E 010°19'26 9.0
2017-Aug-20 06:36N 37°31' E 010°51'1 9.3
2017-Aug-20 06:30N 37°31' E 010°52'5 9.3
2017-Aug-20 06:00N 37°30' E 010°58'5 9.6
2017-Aug-20 05:30N 37°29' E 011°03'5 9.5
2017-Aug-20 05:00N 37°28' E 011°09'5 9.5
2017-Aug-20 04:30N 37°26' E 011°15'5 9.7
2017-Aug-20 04:00N 37°24' E 011°20'5 9.9
2017-Aug-20 03:30N 37°21' E 011°26'510.2
2017-Aug-20 03:00N 37°19' E 011°31'1510.6
2017-Aug-20 01:36N 37°12' E 011°48'1010.4
2017-Aug-20 00:36N 37°08' E 011°59'110.8
2017-Aug-20 00:30N 37°07' E 012°01'610.9
2017-Aug-20 00:00N 37°05' E 012°07'510.8
2017-Aug-19 23:30N 37°02' E 012°13'611.1
2017-Aug-19 23:00N 36°60' E 012°19'611.2
2017-Aug-19 22:30N 36°57' E 012°25'511.0
2017-Aug-19 22:00N 36°55' E 012°31'510.9
2017-Aug-19 21:30N 36°53' E 012°38'510.9
2017-Aug-19 21:00N 36°52' E 012°44'510.7
2017-Aug-19 20:30N 36°50' E 012°51'510.7
2017-Aug-19 20:00N 36°49' E 012°57'510.5
2017-Aug-19 19:30N 36°47' E 013°04'510.5
2017-Aug-19 19:00N 36°46' E 013°10'510.5
2017-Aug-19 18:30N 36°45' E 013°16'510.3
2017-Aug-19 18:00N 36°43' E 013°22'510.2
2017-Aug-19 17:30N 36°42' E 013°28'510.1
2017-Aug-19 17:00N 36°41' E 013°35'510.1
2017-Aug-19 16:30N 36°39' E 013°41'510.1
2017-Aug-19 16:00N 36°38' E 013°47'5 9.8
2017-Aug-19 15:30N 36°36' E 013°53'5 9.6
2017-Aug-19 15:00N 36°35' E 013°58'10 9.8
2017-Aug-19 14:00N 36°33' E 014°10'5 9.8
2017-Aug-19 13:30N 36°31' E 014°16'5 9.9
2017-Aug-19 13:00N 36°30' E 014°22'5 9.8
2017-Aug-19 12:30N 36°29' E 014°28'5 9.8
2017-Aug-19 12:00N 36°27' E 014°34'5 9.4
2017-Aug-19 11:30N 36°27' E 014°39'5 9.3
2017-Aug-19 11:00N 36°27' E 014°45'5 9.5
2017-Aug-19 10:30N 36°27' E 014°51'5 9.8
2017-Aug-19 10:00N 36°27' E 014°57'510.1
2017-Aug-19 09:30N 36°27' E 015°03'510.4
2017-Aug-19 09:00N 36°27' E 015°10'510.7
2017-Aug-19 08:30N 36°27' E 015°17'611.1
2017-Aug-19 08:00N 36°27' E 015°24'611.5
2017-Aug-19 07:30N 36°26' E 015°31'611.8
2017-Aug-19 07:00N 36°26' E 015°38'612.1
2017-Aug-19 06:30N 36°26' E 015°45'612.0
2017-Aug-19 06:00N 36°25' E 015°53'611.5
2017-Aug-19 05:30N 36°26' E 016°00'611.4
2017-Aug-19 05:00N 36°26' E 016°07'611.2
2017-Aug-19 04:30N 36°26' E 016°14'611.1
2017-Aug-19 04:00N 36°25' E 016°21'610.9
2017-Aug-19 03:30N 36°25' E 016°28'1010.8
2017-Aug-19 02:32N 36°25' E 016°41'12010.5
2017-Aug-18 15:07N 36°23' E 019°10'110.5
2017-Aug-18 15:00N 36°23' E 019°11'1110.8
2017-Aug-18 14:00N 36°23' E 019°25'810.5
2017-Aug-18 13:16N 36°23' E 019°35'1710.2
2017-Aug-18 11:36N 36°23' E 019°56'110.0
2017-Aug-18 11:30N 36°23' E 019°57'4010.1
2017-Aug-18 07:33N 36°22' E 020°47'0 9.7
2017-Aug-18 07:30N 36°22' E 020°47'12 9.8
2017-Aug-18 06:16N 36°21' E 021°02'115 9.5
2017-Aug-17 18:11N 36°37' E 023°23'2010.1
2017-Aug-17 16:13N 36°54' E 023°36'2 9.7
2017-Aug-17 16:00N 36°56' E 023°37'1110.4
2017-Aug-17 14:59N 37°05' E 023°45'2710.8
2017-Aug-17 12:29N 37°28' E 024°03'810.6
2017-Aug-17 11:43N 37°35' E 024°08'1110.4
2017-Aug-17 10:40N 37°43' E 024°17'8 9.8
2017-Aug-17 09:52N 37°49' E 024°24'510.4
2017-Aug-17 09:23N 37°51' E 024°29'15112.1
2017-Aug-16 20:56N 40°02' E 026°07'  
2017-Aug-13 18:46N 41°23' E 029°28'310.6
2017-Aug-13 18:29N 41°22' E 029°31'510.7
2017-Aug-13 18:00N 41°20' E 029°38'610.8
2017-Aug-13 17:29N 41°20' E 029°45'511.0
2017-Aug-13 17:00N 41°20' E 029°52'511.0
2017-Aug-13 16:30N 41°19' E 029°59'611.0
2017-Aug-13 16:00N 41°19' E 030°07'511.0
2017-Aug-13 15:30N 41°19' E 030°14'510.8
2017-Aug-13 15:00N 41°19' E 030°21'510.5
2017-Aug-13 14:30N 41°19' E 030°28'510.5
2017-Aug-13 14:00N 41°18' E 030°35'610.7
2017-Aug-13 13:29N 41°18' E 030°43'611.2
2017-Aug-13 12:57N 41°18' E 030°51'511.4
2017-Aug-13 12:30N 41°18' E 030°57'611.4
2017-Aug-13 11:58N 41°17' E 031°05'511.2
2017-Aug-13 11:30N 41°17' E 031°12'  
Track history (hours):
 
Tides and Currents Weather Stations Pressure Air Temp Water Temp Dewpoint Dewpoint Depression Visibility Wind Speed Wind Dir Waves Ship Positions

Navios Pollux

Last reported at 2017-Aug-23 11:30 UTC. Time now 2017-Aug-23 11:41 UTC.
Position N 36°04' W 005°12'.

Length 292 m; draft 8.8 m.

Type: Cargo ship. MMSI: 370290000.

Date/timePositionNaut miles runAvg speedWind from/ knotsBaromVisibWave heightAir tempDewpointWater temp
2017-Aug-23 11:30N 36°04' W 005°12'610.4
2017-Aug-23 10:56N 36°06' W 005°05'53 8.4
2017-Aug-23 04:33N 36°12' W 003°59'4 9.3
2017-Aug-23 04:09N 36°12' W 003°55'9010.3
2017-Aug-22 19:25N 36°26' W 002°04'4 9.3
2017-Aug-22 19:00N 36°27' W 001°59'6 9.6
2017-Aug-22 18:26N 36°28' W 001°53'6 9.9
2017-Aug-22 17:49N 36°29' W 001°45'3 9.8
2017-Aug-22 17:30N 36°29' W 001°42'3210.5
2017-Aug-22 14:28N 36°34' W 001°03'910.9
2017-Aug-22 13:39N 36°35' W 000°52'210.8
2017-Aug-22 13:27N 36°36' W 000°49'510.8
2017-Aug-22 12:58N 36°37' W 000°42'610.9
2017-Aug-22 12:26N 36°37' W 000°35'811.1
2017-Aug-22 11:44N 36°39' W 000°26'311.3
2017-Aug-22 11:29N 36°39' W 000°22'611.4
2017-Aug-22 10:57N 36°40' W 000°15'1911.3
2017-Aug-22 09:15N 36°43' E 000°09'511.3
2017-Aug-22 08:49N 36°44' E 000°15'411.2
2017-Aug-22 08:30N 36°44' E 000°19'510.9
2017-Aug-22 08:00N 36°45' E 000°26'510.6
2017-Aug-22 07:30N 36°46' E 000°33'510.4
2017-Aug-22 07:00N 36°47' E 000°39'510.3
2017-Aug-22 06:30N 36°48' E 000°45'510.2
2017-Aug-22 06:00N 36°48' E 000°51'510.4
2017-Aug-22 05:29N 36°49' E 000°58'510.2
2017-Aug-22 04:57N 36°50' E 001°05'510.3
2017-Aug-22 04:30N 36°51' E 001°10'510.7
2017-Aug-22 04:00N 36°51' E 001°17'610.9
2017-Aug-22 03:26N 36°52' E 001°25'611.1
2017-Aug-22 02:52N 36°53' E 001°33'1411.4
2017-Aug-22 01:37N 36°55' E 001°50'5410.8
2017-Aug-21 20:38N 37°04' E 002°57'110.6
2017-Aug-21 20:30N 37°04' E 002°59'610.5
2017-Aug-21 19:58N 37°05' E 003°06'1710.5
2017-Aug-21 18:20N 37°08' E 003°27'410.8
2017-Aug-21 18:00N 37°08' E 003°31'21910.1
2017-Aug-20 20:20N 37°18' E 008°07'410.0
2017-Aug-20 19:57N 37°18' E 008°11'910.3
2017-Aug-20 19:02N 37°19' E 008°23'31 9.8
2017-Aug-20 15:50N 37°24' E 009°02'7 9.8
2017-Aug-20 15:08N 37°26' E 009°11'1 9.9
2017-Aug-20 15:00N 37°27' E 009°12'510.1
2017-Aug-20 14:30N 37°28' E 009°18'510.5
2017-Aug-20 14:00N 37°30' E 009°24'1310.1
2017-Aug-20 12:40N 37°34' E 009°41'3 9.8
2017-Aug-20 12:22N 37°34' E 009°44'4 9.9
2017-Aug-20 12:00N 37°35' E 009°49'6 9.9
2017-Aug-20 11:25N 37°37' E 009°56'5 9.7
2017-Aug-20 10:57N 37°38' E 010°01'7 9.8
2017-Aug-20 10:13N 37°38' E 010°10'3 9.7
2017-Aug-20 09:55N 37°38' E 010°14'4 9.3
2017-Aug-20 09:30N 37°37' E 010°19'26 9.0
2017-Aug-20 06:36N 37°31' E 010°51'1 9.3
2017-Aug-20 06:30N 37°31' E 010°52'5 9.3
2017-Aug-20 06:00N 37°30' E 010°58'5 9.6
2017-Aug-20 05:30N 37°29' E 011°03'5 9.5
2017-Aug-20 05:00N 37°28' E 011°09'5 9.5
2017-Aug-20 04:30N 37°26' E 011°15'5 9.7
2017-Aug-20 04:00N 37°24' E 011°20'5 9.9
2017-Aug-20 03:30N 37°21' E 011°26'510.2
2017-Aug-20 03:00N 37°19' E 011°31'1510.6
2017-Aug-20 01:36N 37°12' E 011°48'1010.4
2017-Aug-20 00:36N 37°08' E 011°59'110.8
2017-Aug-20 00:30N 37°07' E 012°01'610.9
2017-Aug-20 00:00N 37°05' E 012°07'510.8
2017-Aug-19 23:30N 37°02' E 012°13'611.1
2017-Aug-19 23:00N 36°60' E 012°19'611.2
2017-Aug-19 22:30N 36°57' E 012°25'511.0
2017-Aug-19 22:00N 36°55' E 012°31'510.9
2017-Aug-19 21:30N 36°53' E 012°38'510.9
2017-Aug-19 21:00N 36°52' E 012°44'510.7
2017-Aug-19 20:30N 36°50' E 012°51'510.7
2017-Aug-19 20:00N 36°49' E 012°57'510.5
2017-Aug-19 19:30N 36°47' E 013°04'510.5
2017-Aug-19 19:00N 36°46' E 013°10'510.5
2017-Aug-19 18:30N 36°45' E 013°16'510.3
2017-Aug-19 18:00N 36°43' E 013°22'510.2
2017-Aug-19 17:30N 36°42' E 013°28'510.1
2017-Aug-19 17:00N 36°41' E 013°35'510.1
2017-Aug-19 16:30N 36°39' E 013°41'510.1
2017-Aug-19 16:00N 36°38' E 013°47'5 9.8
2017-Aug-19 15:30N 36°36' E 013°53'5 9.6
2017-Aug-19 15:00N 36°35' E 013°58'10 9.8
2017-Aug-19 14:00N 36°33' E 014°10'5 9.8
2017-Aug-19 13:30N 36°31' E 014°16'5 9.9
2017-Aug-19 13:00N 36°30' E 014°22'5 9.8
2017-Aug-19 12:30N 36°29' E 014°28'5 9.8
2017-Aug-19 12:00N 36°27' E 014°34'5 9.4
2017-Aug-19 11:30N 36°27' E 014°39'5 9.3
2017-Aug-19 11:00N 36°27' E 014°45'5 9.5
2017-Aug-19 10:30N 36°27' E 014°51'5 9.8
2017-Aug-19 10:00N 36°27' E 014°57'510.1
2017-Aug-19 09:30N 36°27' E 015°03'510.4
2017-Aug-19 09:00N 36°27' E 015°10'510.7
2017-Aug-19 08:30N 36°27' E 015°17'611.1
2017-Aug-19 08:00N 36°27' E 015°24'611.5
2017-Aug-19 07:30N 36°26' E 015°31'611.8
2017-Aug-19 07:00N 36°26' E 015°38'612.1
2017-Aug-19 06:30N 36°26' E 015°45'612.0
2017-Aug-19 06:00N 36°25' E 015°53'611.5
2017-Aug-19 05:30N 36°26' E 016°00'611.4
2017-Aug-19 05:00N 36°26' E 016°07'611.2
2017-Aug-19 04:30N 36°26' E 016°14'611.1
2017-Aug-19 04:00N 36°25' E 016°21'610.9
2017-Aug-19 03:30N 36°25' E 016°28'1010.8
2017-Aug-19 02:32N 36°25' E 016°41'12010.5
2017-Aug-18 15:07N 36°23' E 019°10'110.5
2017-Aug-18 15:00N 36°23' E 019°11'1110.8
2017-Aug-18 14:00N 36°23' E 019°25'810.5
2017-Aug-18 13:16N 36°23' E 019°35'1710.2
2017-Aug-18 11:36N 36°23' E 019°56'110.0
2017-Aug-18 11:30N 36°23' E 019°57'4010.1
2017-Aug-18 07:33N 36°22' E 020°47'0 9.7
2017-Aug-18 07:30N 36°22' E 020°47'12 9.8
2017-Aug-18 06:16N 36°21' E 021°02'115 9.5
2017-Aug-17 18:11N 36°37' E 023°23'2010.1
2017-Aug-17 16:13N 36°54' E 023°36'2 9.7
2017-Aug-17 16:00N 36°56' E 023°37'1110.4
2017-Aug-17 14:59N 37°05' E 023°45'2710.8
2017-Aug-17 12:29N 37°28' E 024°03'810.6
2017-Aug-17 11:43N 37°35' E 024°08'1110.4
2017-Aug-17 10:40N 37°43' E 024°17'8 9.8
2017-Aug-17 09:52N 37°49' E 024°24'510.4
2017-Aug-17 09:23N 37°51' E 024°29'15112.1
2017-Aug-16 20:56N 40°02' E 026°07'  
2017-Aug-13 18:46N 41°23' E 029°28'310.6
2017-Aug-13 18:29N 41°22' E 029°31'510.7
2017-Aug-13 18:00N 41°20' E 029°38'610.8
2017-Aug-13 17:29N 41°20' E 029°45'511.0
2017-Aug-13 17:00N 41°20' E 029°52'511.0
2017-Aug-13 16:30N 41°19' E 029°59'611.0
2017-Aug-13 16:00N 41°19' E 030°07'511.0
2017-Aug-13 15:30N 41°19' E 030°14'510.8
2017-Aug-13 15:00N 41°19' E 030°21'510.5
2017-Aug-13 14:30N 41°19' E 030°28'510.5
2017-Aug-13 14:00N 41°18' E 030°35'610.7
2017-Aug-13 13:29N 41°18' E 030°43'611.2
2017-Aug-13 12:57N 41°18' E 030°51'511.4
2017-Aug-13 12:30N 41°18' E 030°57'611.4
2017-Aug-13 11:58N 41°17' E 031°05'511.2
2017-Aug-13 11:30N 41°17' E 031°12'  

Dump ship's entire track history